createdAt,value
2024-04-23T00:02:15.166Z,97636.31
2024-04-23T00:04:44.680Z,97627.69
2024-04-23T00:07:11.501Z,97632.59
2024-04-23T00:09:40.857Z,97636.06
2024-04-23T00:12:10.323Z,97635.72
2024-04-23T00:14:39.831Z,97629.72
2024-04-23T00:17:06.776Z,97630.00
2024-04-23T00:19:37.057Z,97631.28
2024-04-23T00:22:03.814Z,97626.31
2024-04-23T00:24:33.199Z,97622.28
2024-04-23T00:27:01.365Z,97626.44
2024-04-23T00:29:33.512Z,97621.47
2024-04-23T00:32:00.597Z,97619.47
2024-04-23T00:34:30.044Z,97628.78
2024-04-23T00:36:57.703Z,97620.63
2024-04-23T00:39:27.896Z,97615.66
2024-04-23T00:41:54.741Z,97625.19
2024-04-23T00:44:24.184Z,97613.56
2024-04-23T00:46:54.010Z,97611.34
2024-04-23T00:49:23.659Z,97613.31
2024-04-23T00:51:51.456Z,97612.22
2024-04-23T00:54:21.548Z,97608.88
2024-04-23T00:56:48.596Z,97603.00
2024-04-23T00:59:18.100Z,97591.50
2024-04-23T01:01:45.441Z,97603.78
2024-04-23T01:04:17.441Z,97603.78
2024-04-23T01:06:44.292Z,97603.25
2024-04-23T01:09:13.685Z,97603.13
2024-04-23T01:11:40.534Z,97600.78
2024-04-23T01:14:10.162Z,97600.47
2024-04-23T01:16:39.542Z,97597.13
2024-04-23T01:19:11.457Z,97600.94
2024-04-23T01:21:44.516Z,97599.63
2024-04-23T01:24:15.796Z,97606.28
2024-04-23T01:26:45.992Z,97608.44
2024-04-23T01:29:15.612Z,97609.94
2024-04-23T01:31:42.714Z,97596.19
2024-04-23T01:34:12.171Z,97602.75
2024-04-23T01:36:38.965Z,97604.50
2024-04-23T01:39:08.505Z,97604.00
2024-04-23T01:41:35.446Z,97602.63
2024-04-23T01:44:07.640Z,97594.44
2024-04-23T01:46:34.552Z,97603.53
2024-04-23T01:49:04.056Z,97597.72
2024-04-23T01:51:31.033Z,97601.34
2024-04-23T01:54:00.464Z,97585.66
2024-04-23T01:56:27.254Z,97584.09
2024-04-23T01:58:57.084Z,97583.25
2024-04-23T02:01:28.235Z,97588.63
2024-04-23T02:03:57.614Z,97585.34
2024-04-23T02:06:24.651Z,97590.44
2024-04-23T02:08:54.839Z,97584.56
2024-04-23T02:11:21.832Z,97590.44
2024-04-23T02:13:52.019Z,97584.97
2024-04-23T02:16:18.894Z,97581.38
2024-04-23T02:18:50.860Z,97581.75
2024-04-23T02:21:17.891Z,97571.47
2024-04-23T02:23:47.448Z,97572.13
2024-04-23T02:26:14.775Z,97577.09
2024-04-23T02:28:44.167Z,97578.78
2024-04-23T02:31:12.015Z,97561.00
2024-04-23T02:33:41.474Z,97576.03
2024-04-23T02:36:10.923Z,97568.97
2024-04-23T02:38:40.277Z,97573.22
2024-04-23T02:41:07.134Z,97569.47
2024-04-23T02:43:36.546Z,97568.38
2024-04-23T02:46:03.343Z,97566.56
2024-04-23T02:48:32.758Z,97568.06
2024-04-23T02:50:59.583Z,97567.97
2024-04-23T02:53:31.498Z,97565.34
2024-04-23T02:55:58.401Z,97558.00
2024-04-23T02:58:27.828Z,97549.66
2024-04-23T03:00:54.630Z,97564.06
2024-04-23T03:03:24.046Z,97565.31
2024-04-23T03:05:50.818Z,97564.91
2024-04-23T03:08:20.182Z,97561.06
2024-04-23T03:10:49.878Z,97565.13
2024-04-23T03:13:19.310Z,97570.44
2024-04-23T03:15:46.087Z,97560.44
2024-04-23T03:18:15.549Z,97559.44
2024-04-23T03:20:42.395Z,97561.50
2024-04-23T03:23:11.718Z,97567.84
2024-04-23T03:25:40.872Z,97565.31
2024-04-23T03:28:13.051Z,97570.22
2024-04-23T03:30:39.853Z,97569.16
2024-04-23T03:33:09.495Z,97568.97
2024-04-23T03:35:36.357Z,97560.34
2024-04-23T03:38:06.488Z,97572.56
2024-04-23T03:40:35.924Z,97564.44
2024-04-23T03:43:05.345Z,97561.31
2024-04-23T03:45:37.435Z,97559.44
2024-04-23T03:48:07.369Z,97565.91
2024-04-23T03:50:34.171Z,97568.78
2024-04-23T03:53:03.654Z,97570.81
2024-04-23T03:55:30.452Z,97569.19
2024-04-23T03:58:00.548Z,97566.00
2024-04-23T04:00:28.795Z,97568.94
2024-04-23T04:03:16.631Z,97568.22
2024-04-23T04:06:01.902Z,97576.09
2024-04-23T04:08:31.419Z,97567.00
2024-04-23T04:11:00.884Z,97566.72
2024-04-23T04:13:30.447Z,97573.13
2024-04-23T04:16:00.051Z,97569.25
2024-04-23T04:18:29.523Z,97568.38
2024-04-23T04:20:59.333Z,97564.56
2024-04-23T04:23:26.127Z,97567.91
2024-04-23T04:25:55.579Z,97565.91
2024-04-23T04:28:22.447Z,97560.91
2024-04-23T04:30:51.837Z,97571.56
2024-04-23T04:33:18.661Z,97580.69
2024-04-23T04:35:50.715Z,97566.97
2024-04-23T04:38:17.794Z,97564.00
2024-04-23T04:40:47.225Z,97568.34
2024-04-23T04:43:14.089Z,97564.44
2024-04-23T04:45:43.555Z,97569.34
2024-04-23T04:48:10.518Z,97561.91
2024-04-23T04:50:40.146Z,97565.09
2024-04-23T04:53:09.556Z,97566.69
2024-04-23T04:55:39.070Z,97553.75
2024-04-23T04:58:05.880Z,97572.81
2024-04-23T05:00:35.220Z,97572.88
2024-04-23T05:03:02.047Z,97570.22
2024-04-23T05:05:31.387Z,97565.44
2024-04-23T05:07:58.285Z,97566.34
2024-04-23T05:10:30.417Z,97566.75
2024-04-23T05:12:57.165Z,97572.97
2024-04-23T05:15:26.526Z,97565.13
2024-04-23T05:17:53.342Z,97565.97
2024-04-23T05:20:22.791Z,97559.22
2024-04-23T05:22:49.570Z,97562.63
2024-04-23T05:25:19.082Z,97554.22
2024-04-23T05:27:48.489Z,97560.56
2024-04-23T05:30:37.899Z,97566.31
2024-04-23T05:33:04.996Z,97568.41
2024-04-23T05:35:34.364Z,97565.13
2024-04-23T05:38:03.822Z,97568.53
2024-04-23T05:40:33.335Z,97562.97
2024-04-23T05:43:05.388Z,97564.31
2024-04-23T05:45:34.856Z,97567.25
2024-04-23T05:48:41.736Z,97557.94
2024-04-23T05:51:48.761Z,97559.16
2024-04-23T05:54:55.570Z,97565.31
2024-04-23T05:57:24.936Z,97565.66
2024-04-23T05:59:54.351Z,97559.88
2024-04-23T06:02:25.278Z,97555.38
2024-04-23T06:04:52.213Z,97558.00
2024-04-23T06:07:23.032Z,97565.75
2024-04-23T06:09:49.812Z,97565.41
2024-04-23T06:12:19.199Z,97579.91
2024-04-23T06:14:46.031Z,97564.56
2024-04-23T06:17:28.740Z,97571.44
2024-04-23T06:20:05.354Z,97576.84
2024-04-23T06:22:37.159Z,97587.69
2024-04-23T06:25:07.885Z,97575.53
2024-04-23T06:27:37.582Z,97576.97
2024-04-23T06:30:08.251Z,97575.69
2024-04-23T06:32:38.142Z,97579.16
2024-04-23T06:35:08.676Z,97580.59
2024-04-23T06:37:38.251Z,97581.38
2024-04-23T06:40:09.575Z,97577.38
2024-04-23T06:42:39.210Z,97573.28
2024-04-23T06:45:06.966Z,97576.25
2024-04-23T06:47:37.077Z,97576.75
2024-04-23T06:50:09.794Z,97566.69
2024-04-23T06:52:36.658Z,97566.66
2024-04-23T06:55:06.163Z,97572.88
2024-04-23T06:57:33.002Z,97564.16
2024-04-23T07:00:02.413Z,97561.91
2024-04-23T07:02:29.289Z,97570.31
2024-04-23T07:04:58.813Z,97550.53
2024-04-23T07:07:28.213Z,97564.22
2024-04-23T07:09:57.967Z,97551.25
2024-04-23T07:12:24.749Z,97551.09
2024-04-23T07:14:54.560Z,97541.31
2024-04-23T07:17:21.426Z,97546.88
2024-04-23T07:19:52.296Z,97550.13
2024-04-23T07:22:19.333Z,97549.88
2024-04-23T07:24:51.270Z,97542.88
2024-04-23T07:27:18.331Z,97535.88
2024-04-23T07:29:47.782Z,97545.09
2024-04-23T07:32:16.229Z,97537.34
2024-04-23T07:34:45.828Z,97528.25
2024-04-23T07:37:13.533Z,97527.25
2024-04-23T07:39:43.102Z,97534.59
2024-04-23T07:42:12.566Z,97523.59
2024-04-23T07:44:41.920Z,97526.38
2024-04-23T07:47:08.918Z,97534.94
2024-04-23T07:49:39.569Z,97519.44
2024-04-23T07:52:09.289Z,97536.50
2024-04-23T07:54:36.099Z,97530.28
2024-04-23T07:57:05.547Z,97531.44
2024-04-23T07:59:35.021Z,97527.81
2024-04-23T08:02:04.416Z,97529.41
2024-04-23T08:04:31.203Z,97528.31
2024-04-23T08:07:00.726Z,97525.88
2024-04-23T08:09:27.509Z,97524.69
2024-04-23T08:11:56.955Z,97534.28
2024-04-23T08:14:23.758Z,97529.41
2024-04-23T08:16:55.865Z,97523.00
2024-04-23T08:19:22.698Z,97522.63
2024-04-23T08:21:52.093Z,97524.28
2024-04-23T08:24:18.933Z,97529.81
2024-04-23T08:26:48.364Z,97518.16
2024-04-23T08:29:15.258Z,97516.69
2024-04-23T08:31:44.782Z,97516.09
2024-04-23T08:34:14.254Z,97511.69
2024-04-23T08:36:43.697Z,97523.72
2024-04-23T08:39:10.502Z,97516.31
2024-04-23T08:41:43.314Z,97514.06
2024-04-23T08:44:14.265Z,97520.44
2024-04-23T08:46:44.513Z,97509.91
2024-04-23T08:49:14.424Z,97507.03
2024-04-23T08:51:43.846Z,97504.19
2024-04-23T08:54:11.263Z,97510.75
2024-04-23T08:56:44.998Z,97507.56
2024-04-23T08:59:14.675Z,97507.50
2024-04-23T09:01:45.326Z,97502.84
2024-04-23T09:04:14.835Z,97510.06
2024-04-23T09:06:44.619Z,97496.91
2024-04-23T09:09:12.889Z,97502.91
2024-04-23T09:11:43.774Z,97500.50
2024-04-23T09:14:11.756Z,97503.38
2024-04-23T09:16:41.159Z,97499.13
2024-04-23T09:19:08.048Z,97494.81
2024-04-23T09:21:40.077Z,97494.34
2024-04-23T09:24:07.955Z,97499.72
2024-04-23T09:26:39.158Z,97489.75
2024-04-23T09:29:06.155Z,97497.03
2024-04-23T09:31:39.448Z,97493.97
2024-04-23T09:34:11.500Z,97487.97
2024-04-23T09:36:43.931Z,97489.81
2024-04-23T09:39:16.353Z,97491.38
2024-04-23T09:41:45.766Z,97478.25
2024-04-23T09:44:13.592Z,97484.06
2024-04-23T09:46:43.519Z,97473.94
2024-04-23T09:49:12.842Z,97469.94
2024-04-23T09:51:44.789Z,97470.78
2024-04-23T09:54:11.640Z,97465.09
2024-04-23T09:56:40.990Z,97463.19
2024-04-23T09:59:11.473Z,97462.97
2024-04-23T10:01:45.092Z,97462.56
2024-04-23T10:04:13.324Z,97462.75
2024-04-23T10:06:53.409Z,97450.41
2024-04-23T10:09:25.124Z,97445.34
2024-04-23T10:11:57.127Z,97450.09
2024-04-23T10:14:25.248Z,97439.41
2024-04-23T10:16:58.527Z,97434.22
2024-04-23T10:19:26.828Z,97437.81
2024-04-23T10:21:58.983Z,97436.03
2024-04-23T10:24:25.992Z,97437.59
2024-04-23T10:26:55.637Z,97438.44
2024-04-23T10:29:22.662Z,97431.94
2024-04-23T10:31:52.200Z,97432.16
2024-04-23T10:34:19.543Z,97413.50
2024-04-23T10:36:51.166Z,97412.34
2024-04-23T10:39:23.850Z,97422.50
2024-04-23T10:41:55.386Z,97423.00
2024-04-23T10:44:23.061Z,97423.50
2024-04-23T10:46:52.640Z,97416.53
2024-04-23T10:49:23.848Z,97409.78
2024-04-23T10:51:53.269Z,97400.81
2024-04-23T10:54:23.889Z,97401.81
2024-04-23T10:56:59.426Z,97400.50
2024-04-23T10:59:31.383Z,97407.22
2024-04-23T11:02:01.659Z,97407.28
2024-04-23T11:04:29.446Z,97401.91
2024-04-23T11:07:05.184Z,97397.13
2024-04-23T11:09:38.493Z,97389.13
2024-04-23T11:12:21.046Z,97386.19
2024-04-23T11:14:48.938Z,97384.28
2024-04-23T11:17:18.680Z,97375.03
2024-04-23T11:19:48.218Z,97377.66
2024-04-23T11:22:18.758Z,97364.09
2024-04-23T11:24:53.692Z,97359.53
2024-04-23T11:27:24.126Z,97355.28
2024-04-23T11:29:51.237Z,97358.25
2024-04-23T11:32:20.791Z,97358.22
2024-04-23T11:34:48.672Z,97360.56
2024-04-23T11:37:24.271Z,97354.66
2024-04-23T11:39:58.098Z,97359.09
2024-04-23T11:42:28.000Z,97343.47
2024-04-23T11:44:57.243Z,97341.38
2024-04-23T11:47:28.938Z,97347.13
2024-04-23T11:49:56.734Z,97328.19
2024-04-23T11:52:26.858Z,97337.69
2024-04-23T11:54:57.410Z,97322.94
2024-04-23T11:57:27.019Z,97334.19
2024-04-23T11:59:53.798Z,97333.41
2024-04-23T12:02:24.771Z,97338.16
2024-04-23T12:04:52.024Z,97334.66
2024-04-23T12:07:22.234Z,97333.66
2024-04-23T12:09:51.751Z,97331.66
2024-04-23T12:12:25.735Z,97312.19
2024-04-23T12:14:52.567Z,97310.88
2024-04-23T12:17:25.457Z,97312.88
2024-04-23T12:19:52.389Z,97312.38
2024-04-23T12:22:21.944Z,97311.88
2024-04-23T12:24:49.962Z,97317.16
2024-04-23T12:27:19.892Z,97304.31
2024-04-23T12:29:49.301Z,97297.88
2024-04-23T12:32:18.853Z,97291.31
2024-04-23T12:34:48.377Z,97307.66
2024-04-23T12:37:21.334Z,97291.41
2024-04-23T12:39:50.717Z,97290.75
2024-04-23T12:42:19.140Z,97274.66
2024-04-23T12:44:48.944Z,97286.97
2024-04-23T12:47:18.551Z,97275.22
2024-04-23T12:49:48.135Z,97269.16
2024-04-23T12:52:14.968Z,97274.09
2024-04-23T12:54:44.598Z,97271.03
2024-04-23T12:57:12.507Z,97264.38
2024-04-23T12:59:41.964Z,97264.47
2024-04-23T13:02:09.201Z,97270.09
2024-04-23T13:04:41.472Z,97271.56
2024-04-23T13:07:09.391Z,97266.28
2024-04-23T13:09:39.638Z,97255.09
2024-04-23T13:12:11.219Z,97242.41
2024-04-23T13:14:40.792Z,97254.66
2024-04-23T13:17:07.634Z,97245.88
2024-04-23T13:19:37.117Z,97244.13
2024-04-23T13:22:08.790Z,97241.69
2024-04-23T13:24:38.291Z,97247.31
2024-04-23T13:27:05.469Z,97245.31
2024-04-23T13:29:34.904Z,97230.31
2024-04-23T13:32:01.990Z,97231.16
2024-04-23T13:34:31.536Z,97223.25
2024-04-23T13:36:58.919Z,97229.41
2024-04-23T13:39:30.886Z,97221.88
2024-04-23T13:41:57.642Z,97222.38
2024-04-23T13:44:27.486Z,97231.13
2024-04-23T13:46:54.398Z,97233.53
2024-04-23T13:49:23.755Z,97225.91
2024-04-23T13:51:50.564Z,97229.44
2024-04-23T13:54:19.926Z,97228.34
2024-04-23T13:56:49.314Z,97228.09
2024-04-23T13:59:20.681Z,97211.75
2024-04-23T14:01:47.550Z,97211.66
2024-04-23T14:04:17.326Z,97215.03
2024-04-23T14:06:44.097Z,97208.63
2024-04-23T14:09:13.704Z,97194.22
2024-04-23T14:11:41.472Z,97195.59
2024-04-23T14:14:14.511Z,97192.31
2024-04-23T14:16:41.350Z,97201.09
2024-04-23T14:19:11.988Z,97189.84
2024-04-23T14:21:38.773Z,97192.81
2024-04-23T14:24:08.564Z,97199.28
2024-04-23T14:26:36.539Z,97195.69
2024-04-23T14:29:05.990Z,97192.03
2024-04-23T14:31:36.079Z,97187.50
2024-04-23T14:34:07.149Z,97188.53
2024-04-23T14:36:34.843Z,97186.69
2024-04-23T14:39:04.239Z,97181.16
2024-04-23T14:41:30.984Z,97179.63
2024-04-23T14:44:00.604Z,97178.81
2024-04-23T14:46:27.443Z,97178.56
2024-04-23T14:49:02.728Z,97187.25
2024-04-23T14:51:33.793Z,97178.66
2024-04-23T14:54:03.207Z,97171.50
2024-04-23T14:56:30.111Z,97177.59
2024-04-23T14:59:01.078Z,97172.34
2024-04-23T15:01:28.044Z,97169.53
2024-04-23T15:04:02.661Z,97160.59
2024-04-23T15:06:29.819Z,97153.38
2024-04-23T15:09:00.890Z,97159.25
2024-04-23T15:11:27.874Z,97162.28
2024-04-23T15:13:57.397Z,97163.38
2024-04-23T15:16:24.158Z,97153.94
2024-04-23T15:18:53.752Z,97150.97
2024-04-23T15:21:25.785Z,97152.72
2024-04-23T15:23:52.582Z,97154.38
2024-04-23T15:26:22.097Z,97152.91
2024-04-23T15:28:50.149Z,97140.88
2024-04-23T15:31:19.568Z,97129.88
2024-04-23T15:33:46.380Z,97124.63
2024-04-23T15:36:23.130Z,97135.34
2024-04-23T15:38:57.708Z,97130.47
2024-04-23T15:41:27.131Z,97137.41
2024-04-23T15:43:54.029Z,97137.94
2024-04-23T15:46:23.415Z,97136.41
2024-04-23T15:48:50.394Z,97131.16
2024-04-23T15:51:19.824Z,97138.25
2024-04-23T15:53:49.174Z,97138.25
2024-04-23T15:56:18.640Z,97134.06
2024-04-23T15:58:48.070Z,97132.84
2024-04-23T16:01:17.050Z,97124.44
2024-04-23T16:03:47.061Z,97134.91
2024-04-23T16:06:18.435Z,97116.19
2024-04-23T16:08:48.517Z,97127.75
2024-04-23T16:11:16.032Z,97122.88
2024-04-23T16:13:48.170Z,97117.72
2024-04-23T16:16:14.967Z,97114.38
2024-04-23T16:18:44.389Z,97118.53
2024-04-23T16:21:12.571Z,97115.28
2024-04-23T16:23:42.173Z,97111.53
2024-04-23T16:26:10.809Z,97121.91
2024-04-23T16:28:40.536Z,97117.13
2024-04-23T16:31:10.952Z,97109.88
2024-04-23T16:33:41.370Z,97117.88
2024-04-23T16:36:09.218Z,97114.53
2024-04-23T16:38:39.581Z,97108.06
2024-04-23T16:41:08.310Z,97104.81
2024-04-23T16:43:38.706Z,97109.72
2024-04-23T16:46:05.717Z,97108.88
2024-04-23T16:48:38.668Z,97099.19
2024-04-23T16:51:07.327Z,97094.94
2024-04-23T16:53:37.174Z,97099.13
2024-04-23T16:56:05.111Z,97108.13
2024-04-23T16:58:36.480Z,97105.00
2024-04-23T17:01:05.953Z,97097.81
2024-04-23T17:03:39.093Z,97098.59
2024-04-23T17:06:06.260Z,97093.91
2024-04-23T17:08:35.802Z,97098.59
2024-04-23T17:11:03.525Z,97095.22
2024-04-23T17:13:33.723Z,97091.25
2024-04-23T17:16:01.051Z,97104.28
2024-04-23T17:18:30.570Z,97104.00
2024-04-23T17:21:00.072Z,97095.91
2024-04-23T17:23:31.281Z,97102.72
2024-04-23T17:26:00.863Z,97099.16
2024-04-23T17:28:30.781Z,97097.41
2024-04-23T17:30:59.519Z,97106.94
2024-04-23T17:33:28.939Z,97105.19
2024-04-23T17:35:59.926Z,97108.91
2024-04-23T17:38:29.394Z,97106.72
2024-04-23T17:40:56.189Z,97103.16
2024-04-23T17:43:25.745Z,97104.78
2024-04-23T17:46:00.410Z,97103.75
2024-04-23T17:48:29.829Z,97108.16
2024-04-23T17:50:59.229Z,97103.50
2024-04-23T17:53:28.592Z,97105.00
2024-04-23T17:56:00.459Z,97103.41
2024-04-23T17:58:30.145Z,97105.09
2024-04-23T18:00:56.963Z,97102.91
2024-04-23T18:03:27.534Z,97093.44
2024-04-23T18:05:54.303Z,97100.53
2024-04-23T18:08:26.424Z,97101.47
2024-04-23T18:10:53.330Z,97106.16
2024-04-23T18:13:23.318Z,97104.84
2024-04-23T18:15:50.243Z,97108.38
2024-04-23T18:18:19.833Z,97108.91
2024-04-23T18:20:46.679Z,97103.38
2024-04-23T18:23:16.126Z,97109.56
2024-04-23T18:25:51.697Z,97107.09
2024-04-23T18:28:21.064Z,97105.06
2024-04-23T18:30:48.206Z,97113.25
2024-04-23T18:33:17.616Z,97115.75
2024-04-23T18:35:44.448Z,97119.13
2024-04-23T18:38:13.883Z,97111.44
2024-04-23T18:40:40.700Z,97110.66
2024-04-23T18:43:12.932Z,97108.00
2024-04-23T18:45:39.774Z,97116.47
2024-04-23T18:48:10.060Z,97113.72
2024-04-23T18:50:37.247Z,97111.25
2024-04-23T18:53:07.093Z,97107.69
2024-04-23T18:55:33.890Z,97102.94
2024-04-23T18:58:03.528Z,97107.75
2024-04-23T19:00:32.969Z,97113.94
2024-04-23T19:03:02.784Z,97111.91
2024-04-23T19:05:29.680Z,97109.63
2024-04-23T19:08:01.124Z,97106.47
2024-04-23T19:10:27.943Z,97107.78
2024-04-23T19:12:57.285Z,97106.59
2024-04-23T19:15:24.038Z,97099.72
2024-04-23T19:17:58.149Z,97097.53
2024-04-23T19:20:24.921Z,97104.59
2024-04-23T19:22:54.309Z,97104.38
2024-04-23T19:25:22.472Z,97106.47
2024-04-23T19:27:53.797Z,97099.38
2024-04-23T19:30:23.162Z,97104.22
2024-04-23T19:32:50.016Z,97105.53
2024-04-23T19:35:22.101Z,97101.03
2024-04-23T19:37:49.502Z,97089.56
2024-04-23T19:40:19.827Z,97093.69
2024-04-23T19:42:46.613Z,97090.50
2024-04-23T19:45:16.136Z,97095.75
2024-04-23T19:47:42.932Z,97090.94
2024-04-23T19:50:12.422Z,97089.78
2024-04-23T19:52:41.896Z,97092.38
2024-04-23T19:55:11.267Z,97089.00
2024-04-23T19:57:56.387Z,97089.56
2024-04-23T20:00:25.925Z,97091.59
2024-04-23T20:02:55.369Z,97086.66
2024-04-23T20:05:24.965Z,97083.78
2024-04-23T20:07:56.997Z,97086.28
2024-04-23T20:10:26.379Z,97084.81
2024-04-23T20:12:55.773Z,97090.41
2024-04-23T20:15:25.224Z,97083.53
2024-04-23T20:17:54.738Z,97082.66
2024-04-23T20:20:24.382Z,97078.63
2024-04-23T20:22:53.878Z,97079.81
2024-04-23T20:25:25.921Z,97075.53
2024-04-23T20:27:55.337Z,97080.28
2024-04-23T20:30:24.742Z,97070.47
2024-04-23T20:32:57.530Z,97073.13
2024-04-23T20:35:27.532Z,97057.81
2024-04-23T20:37:56.952Z,97065.13
2024-04-23T20:40:29.088Z,97064.44
2024-04-23T20:42:58.816Z,97062.22
2024-04-23T20:45:28.191Z,97061.28
2024-04-23T20:47:57.761Z,97061.56
2024-04-23T20:50:27.252Z,97067.88
2024-04-23T20:52:56.666Z,97057.13
2024-04-23T20:55:26.043Z,97057.09
2024-04-23T20:58:00.392Z,97053.00
2024-04-23T21:00:31.451Z,97048.38
2024-04-23T21:02:58.289Z,97054.63
2024-04-23T21:05:27.804Z,97047.59
2024-04-23T21:07:57.243Z,97043.97
2024-04-23T21:10:26.744Z,97046.31
2024-04-23T21:12:58.990Z,97052.84
2024-04-23T21:15:30.205Z,97049.00
2024-04-23T21:17:59.647Z,97033.75
2024-04-23T21:20:29.070Z,97033.94
2024-04-23T21:22:59.211Z,97041.63
2024-04-23T21:25:28.638Z,97042.56
2024-04-23T21:28:00.699Z,97029.19
2024-04-23T21:30:27.716Z,97035.44
2024-04-23T21:32:57.231Z,97036.41
2024-04-23T21:35:26.793Z,97032.81
2024-04-23T21:37:56.228Z,97027.31
2024-04-23T21:40:25.569Z,97028.78
2024-04-23T21:42:54.974Z,97035.19
2024-04-23T21:45:27.856Z,97027.97
2024-04-23T21:47:54.786Z,97033.59
2024-04-23T21:50:24.312Z,97028.72
2024-04-23T21:52:51.185Z,97026.94
2024-04-23T21:55:20.600Z,97033.59
2024-04-23T21:57:50.046Z,97025.16
2024-04-23T22:00:19.442Z,97025.00
2024-04-23T22:02:51.668Z,97024.22
2024-04-23T22:05:21.324Z,97020.94
2024-04-23T22:07:51.000Z,97019.00
2024-04-23T22:10:22.222Z,97015.69
2024-04-23T22:12:53.575Z,97013.25
2024-04-23T22:15:28.224Z,97005.31
2024-04-23T22:18:07.866Z,97001.19
2024-04-23T22:20:37.676Z,97004.38
2024-04-23T22:23:07.336Z,97000.47
2024-04-23T22:25:37.012Z,96994.63
2024-04-23T22:28:06.710Z,96996.16
2024-04-23T22:30:36.197Z,96984.00
2024-04-23T22:33:08.488Z,96980.91
2024-04-23T22:35:37.920Z,96983.53
2024-04-23T22:38:07.484Z,96987.09
2024-04-23T22:40:36.892Z,96984.78
2024-04-23T22:43:06.527Z,96981.41
2024-04-23T22:45:35.930Z,96973.97
2024-04-23T22:48:09.224Z,96970.50
2024-04-23T22:50:38.716Z,96965.94
2024-04-23T22:53:08.097Z,96961.81
2024-04-23T22:55:37.452Z,96969.69
2024-04-23T22:58:07.331Z,96955.59
2024-04-23T23:00:36.844Z,96955.34
2024-04-23T23:03:09.071Z,96957.97
2024-04-23T23:05:38.664Z,96954.94
2024-04-23T23:08:08.505Z,96956.25
2024-04-23T23:10:37.875Z,96957.53
2024-04-23T23:13:07.450Z,96947.66
2024-04-23T23:15:36.781Z,96946.81
2024-04-23T23:18:09.060Z,96949.28
2024-04-23T23:20:38.493Z,96938.72
2024-04-23T23:23:07.969Z,96932.41
2024-04-23T23:25:39.028Z,96931.00
2024-04-23T23:28:09.580Z,96927.25
2024-04-23T23:30:39.281Z,96918.09
2024-04-23T23:33:11.428Z,96925.56
2024-04-23T23:35:40.902Z,96921.09
2024-04-23T23:38:10.390Z,96923.50
2024-04-23T23:40:39.764Z,96915.81
2024-04-23T23:43:09.260Z,96912.91
2024-04-23T23:45:38.680Z,96908.28
2024-04-23T23:48:11.307Z,96897.69
2024-04-23T23:50:40.791Z,96899.63
2024-04-23T23:53:10.174Z,96896.34
2024-04-23T23:55:39.680Z,96885.38
2024-04-23T23:58:09.103Z,96887.63
